Terminal Aerodrome Forecast
Issued by NWS

Home | Current Version | Previous Version | Graphics & Text | Print | Product List | Glossary On
Versions: 1 2 3 4 5 6 7 8 9 10 11 12 13 14 15 16 17
137
FTUS43 KMPX 211120
TAFAXN
TAF
KAXN 211120Z 2112/2212 17017KT P6SM OVC025
      TEMPO 2112/2116 SCT025
     FM211800 18014G23KT 6SM -SHRA OVC025
     FM212100 26011KT P6SM OVC040
     FM220000 27010KT P6SM BKN090=

USA.gov is the U.S. government's official web portal to all federal, state and local government web resources and services.